Time;durP1;ratioP1;P1;durP2;ratioP2;P2;SDS_P1;SDS_P2;PMS_P1;PMS_P2;Temp;Humidity;BMP_temperature;BMP_pressure;BME280_temperature;BME280_humidity;BME280_pressure;Samples;Min_cycle;Max_cycle;Signal;HPM_P1;HPM_P2
2021/05/27 00:00:29;;;;;;;1.60;1.50;;;9.70;99.90;;;;;;5068103;28;20207;-82
2021/05/27 00:02:58;;;;;;;2.10;1.90;;;9.60;99.90;;;;;;5071241;28;20205;-85
2021/05/27 00:05:25;;;;;;;2.05;1.95;;;9.60;99.90;;;;;;5069550;28;20574;-82
2021/05/27 00:07:53;;;;;;;2.17;1.77;;;9.60;99.90;;;;;;5066511;28;20201;-84
2021/05/27 00:10:22;;;;;;;1.90;1.80;;;9.60;99.90;;;;;;5066583;28;20207;-85
2021/05/27 00:12:49;;;;;;;1.73;1.63;;;9.60;99.90;;;;;;5069139;28;20201;-84
2021/05/27 00:15:16;;;;;;;3.05;2.10;;;9.60;99.90;;;;;;5066098;28;20206;-84
2021/05/27 00:17:43;;;;;;;1.85;1.75;;;9.50;99.90;;;;;;5068467;28;20199;-84
2021/05/27 00:20:11;;;;;;;2.20;2.00;;;9.50;99.90;;;;;;5072084;28;20209;-84
2021/05/27 00:22:39;;;;;;;1.98;1.88;;;9.50;99.90;;;;;;5075176;28;20202;-84
2021/05/27 00:25:07;;;;;;;1.75;1.65;;;9.50;99.90;;;;;;5080896;28;20223;-84
2021/05/27 00:27:36;;;;;;;2.30;2.13;;;9.40;99.90;;;;;;5069802;28;20201;-85
2021/05/27 00:30:03;;;;;;;1.85;1.75;;;9.50;99.90;;;;;;5070591;28;20206;-84
2021/05/27 00:32:29;;;;;;;1.83;1.73;;;9.50;99.90;;;;;;5071691;28;20202;-84
2021/05/27 00:34:57;;;;;;;2.45;2.25;;;9.40;99.90;;;;;;5080290;28;20218;-84
2021/05/27 00:37:23;;;;;;;2.25;2.00;;;9.40;99.90;;;;;;5074241;28;20209;-84
2021/05/27 00:39:57;;;;;;;2.25;2.03;;;9.40;99.90;;;;;;5075068;28;20210;-83
2021/05/27 00:42:24;;;;;;;3.00;2.17;;;9.40;99.90;;;;;;5067089;28;20333;-85
2021/05/27 00:45:01;;;;;;;2.38;2.15;;;9.40;99.90;;;;;;5070454;28;20654;-84
2021/05/27 00:47:27;;;;;;;6.30;2.30;;;9.40;99.90;;;;;;5075569;28;20196;-84
2021/05/27 00:49:53;;;;;;;2.30;2.10;;;9.40;99.90;;;;;;5068090;28;20201;-83
2021/05/27 00:52:20;;;;;;;2.78;2.58;;;9.40;99.90;;;;;;5069228;28;20201;-84
2021/05/27 00:54:53;;;;;;;3.05;2.85;;;9.40;99.90;;;;;;5074405;28;20694;-83
2021/05/27 00:57:30;;;;;;;3.75;2.22;;;9.40;99.90;;;;;;5072097;28;20316;-85
2021/05/27 00:59:56;;;;;;;2.50;2.40;;;9.30;99.90;;;;;;5069621;28;20242;-82
2021/05/27 01:02:22;;;;;;;2.47;2.28;;;9.40;99.90;;;;;;5073896;28;20206;-84
2021/05/27 01:04:49;;;;;;;3.05;2.85;;;9.40;99.90;;;;;;5080770;28;20686;-84
2021/05/27 01:07:15;;;;;;;3.05;2.85;;;9.40;99.90;;;;;;5080130;28;20247;-82
2021/05/27 01:09:42;;;;;;;3.58;3.28;;;9.40;99.90;;;;;;5080034;28;20205;-85
2021/05/27 01:12:10;;;;;;;3.58;2.55;;;9.30;99.90;;;;;;5080187;28;20704;-86
2021/05/27 01:17:23;;;;;;;2.65;2.45;;;9.30;99.90;;;;;;5080165;28;20263;-82
2021/05/27 01:19:50;;;;;;;2.97;2.60;;;9.40;99.90;;;;;;5080033;28;20209;-84
2021/05/27 01:22:17;;;;;;;2.95;2.75;;;9.30;99.90;;;;;;5079820;28;20217;-84
2021/05/27 01:24:44;;;;;;;2.50;2.25;;;9.30;99.90;;;;;;5080182;28;20231;-84
2021/05/27 01:27:10;;;;;;;2.70;2.50;;;9.30;99.90;;;;;;5080256;28;20298;-84
2021/05/27 01:29:36;;;;;;;4.85;2.70;;;9.30;99.90;;;;;;5079841;28;20213;-84
2021/05/27 01:32:02;;;;;;;2.60;2.40;;;9.30;99.90;;;;;;5080281;28;20212;-84
2021/05/27 01:34:29;;;;;;;2.40;2.30;;;9.30;99.90;;;;;;5079369;28;20535;-84
2021/05/27 01:36:55;;;;;;;2.70;2.50;;;9.30;99.90;;;;;;5079442;28;20208;-84
2021/05/27 01:39:24;;;;;;;2.97;2.78;;;9.30;99.90;;;;;;5079516;28;20660;-84
2021/05/27 01:41:50;;;;;;;2.90;2.67;;;9.30;99.90;;;;;;5079679;28;20212;-84
2021/05/27 01:44:16;;;;;;;2.80;2.22;;;9.30;99.90;;;;;;5079714;28;20713;-84
2021/05/27 01:46:43;;;;;;;3.03;2.70;;;9.30;99.90;;;;;;5079710;28;20238;-84
2021/05/27 01:49:09;;;;;;;2.70;2.42;;;9.30;99.90;;;;;;5079710;28;20205;-81
2021/05/27 01:51:35;;;;;;;2.03;1.92;;;9.30;99.90;;;;;;5078978;28;20213;-84
2021/05/27 01:54:02;;;;;;;5.13;3.22;;;9.30;99.90;;;;;;5079721;28;20265;-84
2021/05/27 01:56:30;;;;;;;2.53;2.30;;;9.30;99.90;;;;;;5079251;28;20205;-83
2021/05/27 01:59:02;;;;;;;2.92;2.72;;;9.30;99.90;;;;;;5079509;28;20231;-84
2021/05/27 02:01:28;;;;;;;3.08;2.85;;;9.30;99.90;;;;;;5078844;28;20205;-84
2021/05/27 02:03:55;;;;;;;2.55;2.35;;;9.30;99.90;;;;;;5079065;28;20268;-83
2021/05/27 02:06:21;;;;;;;2.63;2.40;;;9.30;99.90;;;;;;5078303;28;20208;-84
2021/05/27 02:11:29;;;;;;;3.28;2.53;;;9.30;99.90;;;;;;5079316;28;20716;-82
2021/05/27 02:13:55;;;;;;;2.00;1.90;;;9.30;99.90;;;;;;5079477;28;20236;-84
2021/05/27 02:16:21;;;;;;;2.70;2.50;;;9.30;99.90;;;;;;5079306;28;20651;-84
2021/05/27 02:18:47;;;;;;;1.90;1.80;;;9.30;99.90;;;;;;5078866;28;20260;-84
2021/05/27 02:21:13;;;;;;;2.97;2.78;;;9.30;99.90;;;;;;5079117;28;20202;-84
2021/05/27 02:23:40;;;;;;;3.25;2.72;;;9.30;99.90;;;;;;5078839;28;20225;-81
2021/05/27 02:26:06;;;;;;;2.65;2.45;;;9.30;99.90;;;;;;5078878;28;20246;-82
2021/05/27 02:28:33;;;;;;;2.33;2.05;;;9.30;99.90;;;;;;5079191;28;20212;-82
2021/05/27 02:30:59;;;;;;;4.28;2.20;;;9.30;99.90;;;;;;5078491;28;20214;-84
2021/05/27 02:33:25;;;;;;;2.30;2.10;;;9.30;99.90;;;;;;5078624;28;20225;-84
2021/05/27 02:35:51;;;;;;;2.30;2.17;;;9.30;99.90;;;;;;5078724;28;20201;-84
2021/05/27 02:38:19;;;;;;;5.65;2.90;;;9.30;99.90;;;;;;5078888;28;20214;-84
2021/05/27 02:40:45;;;;;;;2.92;2.65;;;9.30;99.90;;;;;;5078806;28;20246;-84
2021/05/27 02:43:12;;;;;;;2.75;2.55;;;9.30;99.90;;;;;;5078536;28;20226;-84
2021/05/27 02:45:39;;;;;;;3.30;3.05;;;9.30;99.90;;;;;;5077923;28;20225;-83
2021/05/27 02:48:05;;;;;;;2.80;2.60;;;9.40;99.90;;;;;;5079223;28;20201;-84
2021/05/27 02:50:31;;;;;;;2.42;2.33;;;9.40;99.90;;;;;;5078523;28;20206;-84
2021/05/27 02:52:58;;;;;;;2.65;2.50;;;9.30;99.90;;;;;;5077495;28;20237;-81
2021/05/27 02:55:24;;;;;;;3.00;2.80;;;9.40;99.90;;;;;;5079072;28;20206;-84
2021/05/27 02:57:50;;;;;;;2.72;2.30;;;9.40;99.90;;;;;;5078521;28;20209;-84
2021/05/27 03:00:17;;;;;;;2.92;2.72;;;9.40;99.90;;;;;;5078486;28;20231;-82
2021/05/27 03:02:44;;;;;;;2.40;2.20;;;9.40;99.90;;;;;;5078615;28;20659;-84
2021/05/27 03:05:11;;;;;;;3.17;2.75;;;9.40;99.90;;;;;;5078900;28;20232;-81
2021/05/27 03:07:38;;;;;;;3.55;2.70;;;9.40;99.90;;;;;;5078979;28;20206;-84
2021/05/27 03:10:05;;;;;;;2.50;2.30;;;9.40;99.90;;;;;;5078786;28;20209;-84
2021/05/27 03:12:31;;;;;;;2.50;2.40;;;9.40;99.90;;;;;;5079282;28;20206;-82
2021/05/27 03:14:57;;;;;;;2.40;2.22;;;9.40;99.90;;;;;;5078215;28;20221;-84
2021/05/27 03:17:23;;;;;;;2.25;2.15;;;9.40;99.90;;;;;;5079116;28;20206;-84
2021/05/27 03:19:50;;;;;;;2.80;2.70;;;9.40;99.90;;;;;;5078350;28;20582;-84
2021/05/27 03:22:16;;;;;;;2.20;2.10;;;9.40;99.90;;;;;;5079087;28;20210;-84
2021/05/27 03:24:43;;;;;;;2.22;2.13;;;9.40;99.90;;;;;;5078305;28;20243;-84
2021/05/27 03:27:10;;;;;;;2.63;2.15;;;9.40;99.90;;;;;;5078511;28;20205;-81
2021/05/27 03:29:36;;;;;;;2.50;2.40;;;9.40;99.90;;;;;;5080100;28;20209;-84
2021/05/27 03:32:02;;;;;;;2.80;2.60;;;9.40;99.90;;;;;;5082585;28;20207;-84
2021/05/27 03:34:31;;;;;;;4.95;3.83;;;9.40;99.90;;;;;;5082460;28;20221;-84
2021/05/27 03:36:58;;;;;;;2.28;2.17;;;9.40;99.90;;;;;;5082953;28;20256;-84
2021/05/27 03:39:24;;;;;;;2.00;1.90;;;9.40;99.90;;;;;;5082674;28;20218;-84
2021/05/27 03:41:50;;;;;;;3.33;3.03;;;9.40;99.90;;;;;;5082231;28;20238;-84
2021/05/27 03:44:17;;;;;;;3.80;2.25;;;9.40;99.90;;;;;;5082176;28;20229;-84
2021/05/27 03:46:43;;;;;;;2.83;2.45;;;9.40;99.90;;;;;;5082001;28;20214;-81
2021/05/27 03:49:10;;;;;;;2.70;2.50;;;9.30;99.90;;;;;;5085562;28;20216;-81
2021/05/27 03:51:36;;;;;;;2.20;1.95;;;9.30;99.90;;;;;;5099163;28;20210;-79
2021/05/27 03:54:04;;;;;;;2.33;2.22;;;9.30;99.90;;;;;;5099194;28;20229;-80
2021/05/27 03:56:30;;;;;;;2.80;2.65;;;9.30;99.90;;;;;;5098122;28;20192;-81
2021/05/27 04:01:41;;;;;;;2.38;2.28;;;9.30;99.90;;;;;;5081674;28;20204;-85
2021/05/27 04:07:10;;;;;;;2.75;2.55;;;9.30;99.90;;;;;;5082264;28;20227;-81
2021/05/27 04:09:37;;;;;;;2.30;2.20;;;9.30;99.90;;;;;;5081750;28;20212;-82
2021/05/27 04:17:29;;;;;;;3.40;3.10;;;9.30;99.90;;;;;;5080882;28;20228;-84
2021/05/27 04:19:55;;;;;;;3.05;2.85;;;9.30;99.90;;;;;;5081308;28;20235;-84
2021/05/27 04:22:22;;;;;;;2.80;2.60;;;9.30;99.90;;;;;;5080641;28;20574;-84
2021/05/27 04:24:49;;;;;;;3.45;3.15;;;9.30;99.90;;;;;;5080541;28;20240;-82
2021/05/27 04:27:15;;;;;;;4.18;3.22;;;9.30;99.90;;;;;;5081010;28;20209;-84
2021/05/27 04:29:41;;;;;;;3.20;3.00;;;9.30;99.90;;;;;;5081831;28;20667;-85
2021/05/27 04:32:07;;;;;;;3.75;3.45;;;9.20;99.90;;;;;;5083539;28;20211;-85
2021/05/27 04:34:33;;;;;;;3.67;3.42;;;9.20;99.90;;;;;;5078376;28;20247;-85
2021/05/27 04:37:00;;;;;;;3.90;3.50;;;9.30;99.90;;;;;;5071988;28;20667;-85
2021/05/27 04:39:26;;;;;;;3.20;3.00;;;9.30;99.90;;;;;;5069633;28;20198;-85
2021/05/27 04:41:53;;;;;;;3.22;2.92;;;9.20;99.90;;;;;;5070426;28;20197;-85
2021/05/27 04:44:19;;;;;;;3.50;3.22;;;9.20;99.90;;;;;;5068652;28;20221;-85
2021/05/27 04:46:45;;;;;;;3.60;3.40;;;9.20;99.90;;;;;;5069392;28;20237;-85
2021/05/27 04:49:13;;;;;;;5.03;4.63;;;9.20;99.90;;;;;;5071787;28;20201;-84
2021/05/27 04:51:39;;;;;;;4.00;3.45;;;9.20;99.90;;;;;;5080506;28;20201;-85
2021/05/27 04:54:06;;;;;;;4.05;3.65;;;9.20;99.90;;;;;;5081129;28;20233;-85
2021/05/27 04:56:32;;;;;;;4.47;4.00;;;9.20;99.90;;;;;;5080922;28;20200;-85
2021/05/27 04:58:59;;;;;;;3.85;3.53;;;9.20;99.90;;;;;;5080421;28;20209;-85
2021/05/27 05:01:26;;;;;;;4.10;3.80;;;9.20;99.90;;;;;;5080812;28;20231;-85
2021/05/27 05:03:52;;;;;;;4.70;4.30;;;9.20;99.90;;;;;;5081261;28;20256;-85
2021/05/27 05:06:18;;;;;;;4.95;4.65;;;9.20;99.90;;;;;;5080694;28;20241;-85
2021/05/27 05:08:44;;;;;;;5.90;5.30;;;9.20;99.90;;;;;;5080519;28;20205;-85
2021/05/27 05:11:11;;;;;;;3.83;3.58;;;9.20;99.90;;;;;;5080824;28;20216;-85
2021/05/27 05:13:37;;;;;;;3.92;3.60;;;9.30;99.90;;;;;;5079812;28;20221;-82
2021/05/27 05:16:04;;;;;;;4.70;4.40;;;9.30;99.90;;;;;;5080949;28;20228;-83
2021/05/27 05:18:31;;;;;;;3.53;3.03;;;9.40;99.90;;;;;;5081315;28;20251;-85
2021/05/27 05:20:57;;;;;;;4.97;4.57;;;9.40;99.90;;;;;;5080754;28;20209;-84
2021/05/27 05:23:23;;;;;;;4.13;3.80;;;9.50;99.90;;;;;;5080716;28;20221;-82
2021/05/27 05:25:49;;;;;;;3.50;3.20;;;9.50;99.90;;;;;;5081258;28;20228;-83
2021/05/27 05:28:16;;;;;;;3.70;3.40;;;9.50;99.90;;;;;;5080776;28;20210;-83
2021/05/27 05:30:43;;;;;;;4.40;4.10;;;9.60;99.90;;;;;;5081588;28;20212;-84
2021/05/27 05:33:10;;;;;;;3.13;2.92;;;9.70;99.90;;;;;;5080337;28;20218;-85
2021/05/27 05:35:39;;;;;;;5.68;4.10;;;9.70;99.90;;;;;;5081112;28;20629;-84
2021/05/27 05:38:06;;;;;;;7.38;3.10;;;9.70;99.90;;;;;;5080839;28;20324;-85
2021/05/27 05:40:32;;;;;;;3.30;3.05;;;9.80;99.90;;;;;;5080572;28;20209;-85
2021/05/27 05:42:59;;;;;;;4.35;3.00;;;9.90;99.90;;;;;;5081367;28;20241;-85
2021/05/27 05:45:26;;;;;;;3.05;2.85;;;9.90;99.90;;;;;;5080494;28;20576;-86
2021/05/27 05:47:54;;;;;;;4.47;2.90;;;9.90;99.90;;;;;;5080726;28;20210;-86
2021/05/27 05:53:03;;;;;;;2.60;2.40;;;9.90;99.90;;;;;;5079047;28;20285;-85
2021/05/27 05:55:30;;;;;;;3.95;2.97;;;10.00;99.90;;;;;;5079796;28;20202;-83
2021/05/27 05:57:56;;;;;;;3.45;3.00;;;10.00;99.90;;;;;;5084849;28;20381;-82
2021/05/27 06:00:22;;;;;;;3.25;3.00;;;10.10;99.90;;;;;;5097002;28;20210;-80
2021/05/27 06:02:49;;;;;;;3.17;2.88;;;10.20;99.90;;;;;;5096064;28;20202;-80
2021/05/27 06:05:15;;;;;;;4.43;2.60;;;10.30;99.90;;;;;;5097228;28;20221;-81
2021/05/27 06:07:42;;;;;;;2.65;2.50;;;10.30;99.90;;;;;;5097096;28;20205;-81
2021/05/27 06:10:10;;;;;;;2.30;2.10;;;10.30;99.90;;;;;;5097620;28;20206;-82
2021/05/27 06:12:38;;;;;;;3.17;2.97;;;10.40;99.90;;;;;;5096354;28;20202;-80
2021/05/27 06:15:05;;;;;;;2.63;2.50;;;10.40;99.90;;;;;;5096490;28;20206;-81
2021/05/27 06:17:31;;;;;;;2.60;2.40;;;10.40;99.90;;;;;;5096626;28;20207;-80
2021/05/27 06:19:58;;;;;;;2.40;2.30;;;10.40;99.90;;;;;;5096950;28;20203;-81
2021/05/27 06:22:24;;;;;;;2.75;2.55;;;10.40;99.90;;;;;;5096225;28;20196;-81
2021/05/27 06:24:51;;;;;;;2.23;2.13;;;10.60;99.90;;;;;;5095782;28;20223;-82
2021/05/27 06:27:17;;;;;;;2.47;2.28;;;10.70;99.90;;;;;;5095492;28;20449;-80
2021/05/27 06:29:43;;;;;;;2.17;2.03;;;10.70;99.90;;;;;;5090174;28;20211;-85
2021/05/27 06:32:09;;;;;;;3.77;2.40;;;10.70;99.90;;;;;;5078833;28;20450;-86
2021/05/27 06:34:36;;;;;;;4.23;2.90;;;10.70;99.90;;;;;;5078830;28;20477;-85
2021/05/27 06:37:02;;;;;;;1.87;1.77;;;10.80;99.90;;;;;;5078730;28;20450;-84
2021/05/27 06:39:30;;;;;;;2.60;2.40;;;10.90;99.90;;;;;;5079220;28;20452;-82
2021/05/27 06:41:57;;;;;;;2.50;2.07;;;10.80;99.90;;;;;;5078975;28;20464;-84
2021/05/27 06:44:25;;;;;;;1.97;1.87;;;11.00;99.90;;;;;;5079037;28;20893;-84
2021/05/27 06:46:52;;;;;;;1.80;1.70;;;11.20;99.90;;;;;;5078776;28;20466;-84
2021/05/27 06:49:18;;;;;;;2.50;2.30;;;11.40;99.90;;;;;;5078573;28;20446;-85
2021/05/27 06:51:45;;;;;;;2.07;1.97;;;11.40;99.90;;;;;;5078432;28;20450;-85
2021/05/27 06:54:11;;;;;;;4.20;2.50;;;11.50;99.90;;;;;;5078784;28;20484;-85
2021/05/27 06:56:37;;;;;;;2.13;2.00;;;11.60;99.90;;;;;;5078648;28;20472;-84
2021/05/27 06:59:04;;;;;;;1.90;1.80;;;11.70;99.90;;;;;;5079574;28;20453;-85
2021/05/27 07:01:31;;;;;;;1.60;1.50;;;11.80;99.90;;;;;;5079153;28;20481;-85
2021/05/27 07:03:57;;;;;;;2.60;2.40;;;11.90;99.90;;;;;;5079258;28;20514;-82
2021/05/27 07:06:23;;;;;;;1.70;1.60;;;11.90;99.90;;;;;;5079466;28;20485;-83
2021/05/27 07:08:49;;;;;;;2.13;1.60;;;11.90;99.90;;;;;;5079496;28;20871;-82
2021/05/27 07:11:16;;;;;;;2.10;1.90;;;11.70;99.90;;;;;;5078815;28;20450;-82
2021/05/27 07:13:42;;;;;;;1.63;1.20;;;11.80;99.90;;;;;;5078254;28;20470;-82
2021/05/27 07:16:10;;;;;;;2.77;1.40;;;12.00;99.90;;;;;;5078375;28;20461;-82
2021/05/27 07:18:36;;;;;;;2.07;1.97;;;12.10;99.90;;;;;;5067812;28;20448;-82
2021/05/27 07:21:02;;;;;;;1.90;1.80;;;12.30;99.90;;;;;;5066808;28;20443;-82
2021/05/27 07:23:29;;;;;;;1.67;1.57;;;12.40;99.90;;;;;;5074974;28;20815;-82
2021/05/27 07:25:55;;;;;;;2.00;1.40;;;12.40;99.90;;;;;;5078265;28;21150;-82
2021/05/27 07:28:23;;;;;;;1.93;1.83;;;12.30;99.90;;;;;;5075818;28;20461;-83
2021/05/27 07:30:50;;;;;;;2.37;1.50;;;12.20;99.90;;;;;;5061940;28;20476;-82
2021/05/27 07:33:22;;;;;;;2.13;2.03;;;12.00;99.90;;;;;;5068053;28;20478;-82
2021/05/27 07:35:48;;;;;;;6.00;1.90;;;11.90;99.90;;;;;;5070353;28;20443;-84
2021/05/27 07:38:15;;;;;;;2.40;1.40;;;11.80;99.90;;;;;;5069527;28;20449;-83
2021/05/27 07:40:41;;;;;;;2.80;1.83;;;11.70;99.90;;;;;;5068897;28;20531;-83
2021/05/27 07:43:07;;;;;;;1.70;1.60;;;11.70;99.90;;;;;;5068730;28;20493;-82
2021/05/27 07:45:34;;;;;;;2.77;1.93;;;11.90;99.90;;;;;;5065503;28;20577;-82
2021/05/27 07:48:00;;;;;;;1.83;1.70;;;12.00;99.90;;;;;;5066699;28;20451;-82
2021/05/27 07:50:27;;;;;;;1.80;1.70;;;12.20;99.90;;;;;;5066023;28;20791;-82
2021/05/27 07:52:54;;;;;;;1.30;1.30;;;12.20;99.90;;;;;;5066957;28;20443;-83
2021/05/27 07:55:20;;;;;;;2.10;1.90;;;12.20;99.90;;;;;;5066042;28;20454;-82
2021/05/27 07:57:46;;;;;;;3.13;2.90;;;12.00;99.90;;;;;;5065090;28;20458;-82
2021/05/27 08:00:14;;;;;;;2.07;1.60;;;12.00;99.90;;;;;;5063453;28;20469;-82
2021/05/27 08:02:41;;;;;;;1.70;1.60;;;12.20;99.90;;;;;;5068747;28;20476;-83
2021/05/27 08:05:07;;;;;;;2.17;1.97;;;12.40;99.90;;;;;;5067346;28;20933;-83
2021/05/27 08:07:35;;;;;;;1.53;1.43;;;12.50;99.90;;;;;;5071044;28;20461;-83
2021/05/27 08:10:01;;;;;;;3.20;1.90;;;12.60;99.90;;;;;;5068245;28;20549;-83
2021/05/27 08:12:27;;;;;;;1.70;1.57;;;12.70;99.90;;;;;;5065445;28;20450;-82
2021/05/27 08:14:53;;;;;;;3.73;2.90;;;12.70;99.90;;;;;;5058766;28;20466;-83
2021/05/27 08:17:19;;;;;;;2.53;1.77;;;12.60;99.90;;;;;;5062469;28;20451;-82
2021/05/27 08:19:47;;;;;;;1.67;1.20;;;12.70;99.90;;;;;;5062163;28;20448;-82
2021/05/27 08:22:15;;;;;;;3.33;3.10;;;12.90;99.90;;;;;;5061115;28;20455;-82
2021/05/27 08:24:42;;;;;;;2.33;1.90;;;13.10;99.90;;;;;;5061611;28;20864;-82
2021/05/27 08:27:08;;;;;;;1.93;1.83;;;13.20;99.90;;;;;;5061786;28;20961;-82
2021/05/27 08:29:34;;;;;;;1.40;1.30;;;13.20;99.60;;;;;;5061832;28;20817;-82
2021/05/27 08:32:00;;;;;;;2.83;2.40;;;13.30;99.80;;;;;;5061717;28;21201;-81
2021/05/27 08:34:26;;;;;;;1.60;1.50;;;13.40;99.90;;;;;;5061343;28;20483;-81
2021/05/27 08:36:53;;;;;;;1.93;1.83;;;13.30;99.00;;;;;;5061966;28;20471;-81
2021/05/27 08:39:19;;;;;;;1.53;1.43;;;13.10;97.90;;;;;;5061324;28;20493;-82
2021/05/27 08:41:46;;;;;;;1.67;1.57;;;13.00;98.50;;;;;;5061311;28;20456;-81
2021/05/27 08:44:13;;;;;;;1.60;1.50;;;13.10;98.90;;;;;;5061073;28;20483;-82
2021/05/27 08:46:41;;;;;;;1.90;1.80;;;13.40;99.40;;;;;;5061251;28;20492;-81
2021/05/27 08:49:07;;;;;;;2.03;1.37;;;13.60;99.90;;;;;;5060807;28;20465;-82
2021/05/27 08:51:34;;;;;;;1.90;1.80;;;13.90;98.50;;;;;;5061399;28;20456;-81
2021/05/27 08:54:00;;;;;;;1.70;1.60;;;14.00;98.50;;;;;;5061649;28;20473;-82
2021/05/27 08:56:27;;;;;;;2.00;1.70;;;14.10;96.80;;;;;;5061446;28;20444;-81
2021/05/27 08:58:54;;;;;;;1.57;1.47;;;14.20;97.80;;;;;;5061058;28;20455;-80
2021/05/27 09:01:23;;;;;;;2.23;1.43;;;14.40;97.70;;;;;;5061019;28;20474;-82
2021/05/27 09:03:50;;;;;;;2.20;1.50;;;14.60;95.60;;;;;;5060998;28;20501;-81
2021/05/27 09:06:16;;;;;;;1.50;1.40;;;14.70;95.40;;;;;;5061590;28;20480;-78
2021/05/27 09:08:44;;;;;;;1.30;1.27;;;14.70;96.00;;;;;;5066646;28;20510;-83
2021/05/27 09:11:13;;;;;;;1.70;1.60;;;14.60;94.30;;;;;;5065690;28;20459;-78
2021/05/27 09:13:52;;;;;;;1.53;1.43;;;14.50;94.90;;;;;;5064870;28;20632;-79
2021/05/27 09:16:20;;;;;;;4.23;1.57;;;14.60;95.00;;;;;;5061065;28;20452;-81
2021/05/27 09:18:46;;;;;;;1.97;1.87;;;14.60;94.10;;;;;;5060645;28;20448;-80
2021/05/27 09:21:14;;;;;;;1.60;1.50;;;14.50;94.30;;;;;;5060971;28;20464;-81
2021/05/27 09:23:46;;;;;;;1.57;1.47;;;14.70;93.20;;;;;;5059542;28;20472;-81
2021/05/27 09:26:15;;;;;;;1.33;1.17;;;14.80;95.80;;;;;;5060047;28;20501;-81
2021/05/27 09:28:42;;;;;;;1.40;1.30;;;14.80;94.20;;;;;;5060640;28;20452;-83
2021/05/27 09:31:10;;;;;;;1.37;1.27;;;14.90;94.20;;;;;;5060403;28;20444;-83
2021/05/27 09:33:39;;;;;;;1.70;1.60;;;15.10;94.60;;;;;;5059863;28;20472;-82
2021/05/27 09:36:07;;;;;;;1.40;1.30;;;15.20;93.30;;;;;;5061523;28;20452;-83
2021/05/27 09:38:36;;;;;;;3.10;2.00;;;15.40;93.60;;;;;;5061022;28;20970;-84
2021/05/27 09:41:16;;;;;;;1.20;1.20;;;15.50;92.70;;;;;;5061384;28;20460;-83
2021/05/27 09:43:45;;;;;;;2.37;1.50;;;15.70;92.10;;;;;;5060052;28;20527;-82
2021/05/27 09:46:11;;;;;;;1.70;1.50;;;15.70;93.00;;;;;;5059821;28;20885;-82
2021/05/27 09:48:39;;;;;;;1.97;1.83;;;15.60;92.10;;;;;;5060061;28;20478;-82
2021/05/27 09:51:07;;;;;;;1.53;1.43;;;15.60;92.10;;;;;;5059801;28;20468;-82
2021/05/27 09:53:34;;;;;;;2.13;1.30;;;15.70;91.30;;;;;;5060303;28;20982;-82
2021/05/27 09:56:03;;;;;;;1.57;1.47;;;15.60;91.70;;;;;;5061529;28;20478;-83
2021/05/27 09:58:30;;;;;;;1.33;1.20;;;15.70;92.10;;;;;;5059528;28;20456;-82
2021/05/27 10:00:56;;;;;;;1.27;1.23;;;15.80;91.90;;;;;;5059483;28;20449;-82
2021/05/27 10:03:34;;;;;;;1.30;1.17;;;15.70;91.30;;;;;;5059175;28;20472;-82
2021/05/27 10:06:03;;;;;;;1.47;1.10;;;15.60;91.50;;;;;;5058864;28;20499;-81
2021/05/27 10:08:46;;;;;;;1.80;1.37;;;15.60;91.10;;;;;;5060437;28;20446;-81
2021/05/27 10:11:12;;;;;;;1.30;1.20;;;15.40;91.10;;;;;;5060914;28;20538;-82
2021/05/27 10:13:40;;;;;;;2.93;1.50;;;15.10;91.30;;;;;;5059021;28;21075;-82
2021/05/27 10:16:06;;;;;;;1.30;1.30;;;15.00;91.50;;;;;;5059851;28;20483;-83
2021/05/27 10:18:32;;;;;;;1.53;1.43;;;14.90;92.00;;;;;;5059573;28;20444;-83
2021/05/27 10:21:03;;;;;;;1.60;1.50;;;14.80;91.70;;;;;;5060028;28;21023;-82
2021/05/27 10:23:30;;;;;;;1.13;0.97;;;14.90;92.00;;;;;;5059626;28;20478;-82
2021/05/27 10:25:56;;;;;;;1.80;1.20;;;14.90;91.90;;;;;;5060191;28;21018;-82
2021/05/27 10:28:24;;;;;;;1.50;1.40;;;14.90;91.70;;;;;;5060280;28;20464;-82
2021/05/27 10:30:51;;;;;;;1.80;1.17;;;14.90;90.80;;;;;;5059791;28;20592;-82
2021/05/27 10:33:19;;;;;;;2.33;2.13;;;14.90;91.60;;;;;;5059555;28;20474;-82
2021/05/27 10:35:54;;;;;;;1.37;1.27;;;14.90;91.30;;;;;;5059525;28;20540;-82
2021/05/27 10:38:47;;;;;;;0.97;0.97;;;15.00;91.60;;;;;;5059889;28;20447;-82
2021/05/27 10:41:14;;;;;;;1.80;1.63;;;15.00;91.40;;;;;;5060799;28;20452;-82
2021/05/27 10:44:09;;;;;;;2.10;1.40;;;15.10;90.70;;;;;;5059961;28;20559;-83
2021/05/27 10:47:06;;;;;;;2.30;1.20;;;15.10;88.60;;;;;;5059966;28;20484;-83
2021/05/27 10:49:52;;;;;;;1.83;1.50;;;15.10;89.90;;;;;;5057140;28;20551;-83
2021/05/27 10:52:43;;;;;;;1.50;1.40;;;14.90;90.30;;;;;;5061719;28;20436;-83
2021/05/27 10:55:54;;;;;;;1.73;1.60;;;14.80;91.20;;;;;;5064301;28;20445;-83
2021/05/27 10:58:42;;;;;;;1.70;1.60;;;14.80;91.80;;;;;;5065259;28;20482;-81
2021/05/27 11:01:09;;;;;;;1.63;1.53;;;14.90;91.30;;;;;;5070324;28;20447;-81
2021/05/27 11:03:49;;;;;;;1.17;1.07;;;15.00;91.20;;;;;;5073841;28;20527;-81
2021/05/27 11:06:23;;;;;;;1.67;1.57;;;15.00;91.40;;;;;;5074614;28;21028;-80
2021/05/27 11:09:27;;;;;;;1.50;1.40;;;15.00;91.40;;;;;;5070396;28;20508;-81
2021/05/27 11:11:56;;;;;;;1.47;1.40;;;14.80;91.60;;;;;;5077003;28;20431;-83
2021/05/27 11:14:24;;;;;;;1.67;1.57;;;14.70;91.90;;;;;;5082336;28;20584;-84
2021/05/27 11:17:18;;;;;;;2.83;2.73;;;14.70;92.20;;;;;;5063310;28;20487;-83
2021/05/27 11:19:50;;;;;;;1.97;1.30;;;14.80;92.50;;;;;;5066386;28;20444;-84
2021/05/27 11:23:05;;;;;;;2.20;1.40;;;14.90;92.20;;;;;;5063376;28;20456;-83
2021/05/27 11:25:40;;;;;;;1.67;1.57;;;15.10;92.50;;;;;;5057399;28;20571;-83
2021/05/27 11:28:33;;;;;;;2.00;1.90;;;15.50;92.30;;;;;;5067826;28;20452;-84
2021/05/27 11:31:00;;;;;;;1.67;1.67;;;15.80;91.30;;;;;;5058482;28;20448;-83
2021/05/27 11:33:40;;;;;;;1.70;1.50;;;16.10;90.20;;;;;;5062212;28;20518;-83
2021/05/27 11:36:27;;;;;;;1.60;1.40;;;16.10;89.00;;;;;;5073067;28;20500;-83
2021/05/27 11:38:55;;;;;;;2.73;1.47;;;16.10;89.80;;;;;;5067367;28;20441;-83
2021/05/27 11:41:23;;;;;;;1.40;1.30;;;16.10;89.70;;;;;;5066261;28;20451;-84
2021/05/27 11:43:55;;;;;;;1.13;1.13;;;16.30;90.00;;;;;;5067618;28;20466;-83
2021/05/27 11:46:25;;;;;;;2.37;1.60;;;16.40;89.40;;;;;;5065466;28;20488;-84
2021/05/27 11:48:59;;;;;;;1.30;1.20;;;16.60;88.80;;;;;;5068314;28;20439;-84
2021/05/27 11:51:37;;;;;;;1.53;1.20;;;16.60;87.00;;;;;;5068980;28;20947;-83
2021/05/27 11:54:06;;;;;;;1.40;1.40;;;16.40;87.20;;;;;;5066235;28;20466;-83
2021/05/27 11:56:37;;;;;;;1.70;1.60;;;16.30;88.50;;;;;;5069405;28;20446;-83
2021/05/27 11:59:05;;;;;;;1.80;1.40;;;16.40;86.60;;;;;;5072079;28;20493;-84
2021/05/27 12:01:31;;;;;;;1.50;1.40;;;16.30;87.90;;;;;;5065943;28;20452;-84
2021/05/27 12:04:07;;;;;;;2.87;1.60;;;16.30;87.40;;;;;;5071247;28;20476;-84
2021/05/27 12:06:50;;;;;;;1.77;1.60;;;16.30;88.90;;;;;;5071880;28;21005;-82
2021/05/27 12:09:24;;;;;;;1.23;1.23;;;16.30;89.00;;;;;;5068595;28;20484;-84
2021/05/27 12:11:50;;;;;;;1.50;1.40;;;16.40;87.40;;;;;;5070683;28;20447;-83
2021/05/27 12:14:17;;;;;;;2.00;1.50;;;16.40;87.70;;;;;;5066917;28;21199;-84
2021/05/27 12:16:43;;;;;;;1.63;1.30;;;16.60;87.00;;;;;;5070719;28;20485;-83
2021/05/27 12:19:12;;;;;;;3.20;2.30;;;17.30;86.30;;;;;;5066489;28;20454;-82
2021/05/27 12:21:54;;;;;;;2.63;1.43;;;18.20;83.70;;;;;;5064769;28;20472;-83
2021/05/27 12:24:27;;;;;;;1.53;1.43;;;18.80;79.70;;;;;;5070297;28;20463;-83
2021/05/27 12:26:54;;;;;;;2.20;1.43;;;19.00;78.90;;;;;;5069945;28;20478;-83
2021/05/27 12:29:21;;;;;;;1.27;1.17;;;18.60;77.10;;;;;;5080749;28;20457;-83
2021/05/27 12:31:47;;;;;;;2.00;1.30;;;18.50;77.20;;;;;;5069598;28;20740;-84
2021/05/27 12:34:16;;;;;;;2.20;1.30;;;18.30;77.90;;;;;;5061824;28;20469;-84
2021/05/27 12:36:56;;;;;;;1.07;1.00;;;18.20;80.60;;;;;;5062017;28;20464;-84
2021/05/27 12:39:34;;;;;;;0.97;0.83;;;18.10;78.00;;;;;;5061639;28;20458;-81
2021/05/27 12:42:02;;;;;;;0.80;0.80;;;18.30;77.70;;;;;;5060933;28;20458;-84
2021/05/27 12:44:37;;;;;;;1.23;1.20;;;18.30;78.10;;;;;;5061580;28;20521;-84
2021/05/27 12:47:18;;;;;;;1.23;1.10;;;17.90;77.00;;;;;;5061537;28;20485;-84
2021/05/27 12:49:47;;;;;;;1.60;1.37;;;17.40;78.90;;;;;;5061202;28;20833;-83
2021/05/27 12:52:33;;;;;;;1.10;1.10;;;17.10;81.10;;;;;;5061008;28;20876;-83
2021/05/27 12:55:00;;;;;;;1.33;1.10;;;16.90;81.10;;;;;;5060977;28;20530;-83
2021/05/27 12:57:26;;;;;;;2.93;1.30;;;16.90;82.50;;;;;;5061114;28;20460;-81
2021/05/27 12:59:56;;;;;;;1.60;1.50;;;17.20;82.70;;;;;;5069121;28;20449;-81
2021/05/27 13:02:24;;;;;;;1.30;1.30;;;17.60;82.10;;;;;;5080551;28;20446;-82
2021/05/27 13:04:51;;;;;;;1.87;1.77;;;18.10;81.00;;;;;;5082316;28;20591;-82
2021/05/27 13:07:18;;;;;;;1.53;1.30;;;18.40;80.40;;;;;;5082273;28;20583;-82
2021/05/27 13:09:47;;;;;;;1.43;1.37;;;18.30;77.90;;;;;;5082570;28;20449;-82
2021/05/27 13:12:16;;;;;;;0.97;0.97;;;17.80;75.30;;;;;;5082085;28;20545;-81
2021/05/27 13:14:43;;;;;;;1.57;1.07;;;17.60;76.60;;;;;;5081545;28;20484;-82
2021/05/27 13:17:14;;;;;;;1.80;1.13;;;17.40;75.30;;;;;;5081714;28;20937;-81